sensor_id;sensor_type;location;lat;lon;timestamp;temperature;humidity
20057;DHT22;10189;49.546;7.906;2023-06-19T00:00:23;19.80;71.60
20057;DHT22;10189;49.546;7.906;2023-06-19T00:02:49;19.70;72.10
20057;DHT22;10189;49.546;7.906;2023-06-19T00:05:14;19.70;71.50
20057;DHT22;10189;49.546;7.906;2023-06-19T00:07:40;19.60;71.80
20057;DHT22;10189;49.546;7.906;2023-06-19T00:10:06;19.50;72.10
20057;DHT22;10189;49.546;7.906;2023-06-19T00:12:33;19.40;72.00
20057;DHT22;10189;49.546;7.906;2023-06-19T00:14:59;19.40;71.90
20057;DHT22;10189;49.546;7.906;2023-06-19T00:17:24;19.30;72.40
20057;DHT22;10189;49.546;7.906;2023-06-19T00:19:53;19.30;72.60
20057;DHT22;10189;49.546;7.906;2023-06-19T00:22:19;19.30;70.70
20057;DHT22;10189;49.546;7.906;2023-06-19T00:24:45;19.40;69.70
20057;DHT22;10189;49.546;7.906;2023-06-19T00:27:11;19.50;69.20
20057;DHT22;10189;49.546;7.906;2023-06-19T00:29:38;19.60;68.70
20057;DHT22;10189;49.546;7.906;2023-06-19T00:32:04;19.60;68.70
20057;DHT22;10189;49.546;7.906;2023-06-19T00:34:31;19.70;69.40
20057;DHT22;10189;49.546;7.906;2023-06-19T00:36:57;19.70;68.10
20057;DHT22;10189;49.546;7.906;2023-06-19T00:39:24;19.90;66.90
20057;DHT22;10189;49.546;7.906;2023-06-19T00:41:55;20.10;66.90
20057;DHT22;10189;49.546;7.906;2023-06-19T00:44:22;20.10;67.00
20057;DHT22;10189;49.546;7.906;2023-06-19T00:46:55;20.20;67.80
20057;DHT22;10189;49.546;7.906;2023-06-19T00:49:25;20.20;67.50
20057;DHT22;10189;49.546;7.906;2023-06-19T00:51:52;20.20;67.90
20057;DHT22;10189;49.546;7.906;2023-06-19T00:54:19;20.20;68.00
20057;DHT22;10189;49.546;7.906;2023-06-19T00:56:45;20.10;68.00
20057;DHT22;10189;49.546;7.906;2023-06-19T00:59:15;20.10;68.60
20057;DHT22;10189;49.546;7.906;2023-06-19T01:01:43;20.00;68.20
20057;DHT22;10189;49.546;7.906;2023-06-19T01:04:09;20.10;68.30
20057;DHT22;10189;49.546;7.906;2023-06-19T01:06:52;20.00;68.30
20057;DHT22;10189;49.546;7.906;2023-06-19T01:09:33;20.00;68.80
20057;DHT22;10189;49.546;7.906;2023-06-19T01:12:08;20.10;68.70
20057;DHT22;10189;49.546;7.906;2023-06-19T01:14:56;20.00;69.10
20057;DHT22;10189;49.546;7.906;2023-06-19T01:17:25;20.00;69.40
20057;DHT22;10189;49.546;7.906;2023-06-19T01:19:54;20.00;70.00
20057;DHT22;10189;49.546;7.906;2023-06-19T01:22:32;20.00;70.30
20057;DHT22;10189;49.546;7.906;2023-06-19T01:24:58;20.00;70.80
20057;DHT22;10189;49.546;7.906;2023-06-19T01:27:25;20.00;71.30
20057;DHT22;10189;49.546;7.906;2023-06-19T01:29:55;20.00;71.90
20057;DHT22;10189;49.546;7.906;2023-06-19T01:32:44;20.00;72.20
20057;DHT22;10189;49.546;7.906;2023-06-19T01:35:23;20.00;72.70
20057;DHT22;10189;49.546;7.906;2023-06-19T01:37:52;19.90;73.30
20057;DHT22;10189;49.546;7.906;2023-06-19T01:40:19;19.90;73.70
20057;DHT22;10189;49.546;7.906;2023-06-19T01:42:54;19.90;73.40
20057;DHT22;10189;49.546;7.906;2023-06-19T01:45:20;19.80;74.00
20057;DHT22;10189;49.546;7.906;2023-06-19T01:47:46;19.80;74.00
20057;DHT22;10189;49.546;7.906;2023-06-19T01:50:12;19.70;74.30
20057;DHT22;10189;49.546;7.906;2023-06-19T01:52:40;19.60;74.40
20057;DHT22;10189;49.546;7.906;2023-06-19T01:55:07;19.60;74.80
20057;DHT22;10189;49.546;7.906;2023-06-19T01:57:35;19.60;75.00
20057;DHT22;10189;49.546;7.906;2023-06-19T02:00:03;19.60;75.20
20057;DHT22;10189;49.546;7.906;2023-06-19T02:02:39;19.50;75.20
20057;DHT22;10189;49.546;7.906;2023-06-19T02:05:05;19.50;75.60
20057;DHT22;10189;49.546;7.906;2023-06-19T02:07:31;19.50;75.60
20057;DHT22;10189;49.546;7.906;2023-06-19T02:09:58;19.50;75.30
20057;DHT22;10189;49.546;7.906;2023-06-19T02:12:23;19.50;74.80
20057;DHT22;10189;49.546;7.906;2023-06-19T02:14:49;19.50;74.90
20057;DHT22;10189;49.546;7.906;2023-06-19T02:17:15;19.50;74.90
20057;DHT22;10189;49.546;7.906;2023-06-19T02:19:41;19.50;74.80
20057;DHT22;10189;49.546;7.906;2023-06-19T02:22:08;19.50;74.80
20057;DHT22;10189;49.546;7.906;2023-06-19T02:24:34;19.50;75.00
20057;DHT22;10189;49.546;7.906;2023-06-19T02:27:00;19.50;75.00
20057;DHT22;10189;49.546;7.906;2023-06-19T02:29:27;19.40;75.30
20057;DHT22;10189;49.546;7.906;2023-06-19T02:31:55;19.30;75.80
20057;DHT22;10189;49.546;7.906;2023-06-19T02:34:21;19.30;75.80
20057;DHT22;10189;49.546;7.906;2023-06-19T02:36:49;19.30;76.10
20057;DHT22;10189;49.546;7.906;2023-06-19T02:39:15;19.30;76.40
20057;DHT22;10189;49.546;7.906;2023-06-19T02:41:41;19.30;76.20
20057;DHT22;10189;49.546;7.906;2023-06-19T02:44:12;19.30;76.30
20057;DHT22;10189;49.546;7.906;2023-06-19T02:46:39;19.20;76.40
20057;DHT22;10189;49.546;7.906;2023-06-19T02:49:08;19.20;76.50
20057;DHT22;10189;49.546;7.906;2023-06-19T02:51:34;19.20;76.60
20057;DHT22;10189;49.546;7.906;2023-06-19T02:53:59;19.20;76.50
20057;DHT22;10189;49.546;7.906;2023-06-19T02:56:26;19.20;76.70
20057;DHT22;10189;49.546;7.906;2023-06-19T02:58:54;19.10;76.50
20057;DHT22;10189;49.546;7.906;2023-06-19T03:01:20;19.10;76.30
20057;DHT22;10189;49.546;7.906;2023-06-19T03:03:46;19.20;75.50
20057;DHT22;10189;49.546;7.906;2023-06-19T03:06:12;19.20;75.60
20057;DHT22;10189;49.546;7.906;2023-06-19T03:08:39;19.10;75.60
20057;DHT22;10189;49.546;7.906;2023-06-19T03:11:05;19.10;75.20
20057;DHT22;10189;49.546;7.906;2023-06-19T03:13:55;19.10;75.00
20057;DHT22;10189;49.546;7.906;2023-06-19T03:16:22;19.10;75.00
20057;DHT22;10189;49.546;7.906;2023-06-19T03:18:49;19.10;74.80
20057;DHT22;10189;49.546;7.906;2023-06-19T03:21:17;19.10;74.40
20057;DHT22;10189;49.546;7.906;2023-06-19T03:23:46;19.10;74.10
20057;DHT22;10189;49.546;7.906;2023-06-19T03:26:12;19.10;74.30
20057;DHT22;10189;49.546;7.906;2023-06-19T03:28:40;19.10;74.60
20057;DHT22;10189;49.546;7.906;2023-06-19T03:31:08;19.10;74.50
20057;DHT22;10189;49.546;7.906;2023-06-19T03:33:34;19.10;74.40
20057;DHT22;10189;49.546;7.906;2023-06-19T03:36:00;19.00;74.90
20057;DHT22;10189;49.546;7.906;2023-06-19T03:38:47;19.00;75.10
20057;DHT22;10189;49.546;7.906;2023-06-19T03:41:17;18.90;75.50
20057;DHT22;10189;49.546;7.906;2023-06-19T03:43:43;18.80;76.10
20057;DHT22;10189;49.546;7.906;2023-06-19T03:46:09;18.80;76.30
20057;DHT22;10189;49.546;7.906;2023-06-19T03:48:34;18.80;76.50
20057;DHT22;10189;49.546;7.906;2023-06-19T03:51:00;18.70;77.10
20057;DHT22;10189;49.546;7.906;2023-06-19T03:53:27;18.70;77.40
20057;DHT22;10189;49.546;7.906;2023-06-19T03:55:54;18.70;77.80
20057;DHT22;10189;49.546;7.906;2023-06-19T03:58:20;18.70;78.10
20057;DHT22;10189;49.546;7.906;2023-06-19T04:00:46;18.70;78.30
20057;DHT22;10189;49.546;7.906;2023-06-19T04:03:12;18.80;78.40
20057;DHT22;10189;49.546;7.906;2023-06-19T04:05:38;18.80;78.60
20057;DHT22;10189;49.546;7.906;2023-06-19T04:08:07;18.80;78.70
20057;DHT22;10189;49.546;7.906;2023-06-19T04:10:33;18.90;78.80
20057;DHT22;10189;49.546;7.906;2023-06-19T04:12:59;18.90;78.70
20057;DHT22;10189;49.546;7.906;2023-06-19T04:15:25;19.00;78.70
20057;DHT22;10189;49.546;7.906;2023-06-19T04:17:52;19.10;78.60
20057;DHT22;10189;49.546;7.906;2023-06-19T04:20:18;19.20;78.30
20057;DHT22;10189;49.546;7.906;2023-06-19T04:22:46;19.30;78.10
20057;DHT22;10189;49.546;7.906;2023-06-19T04:25:12;19.50;78.10
20057;DHT22;10189;49.546;7.906;2023-06-19T04:27:38;19.60;77.60
20057;DHT22;10189;49.546;7.906;2023-06-19T04:30:05;19.70;77.20
20057;DHT22;10189;49.546;7.906;2023-06-19T04:32:33;19.90;76.90
20057;DHT22;10189;49.546;7.906;2023-06-19T04:35:00;20.00;76.50
20057;DHT22;10189;49.546;7.906;2023-06-19T04:37:26;20.10;76.00
20057;DHT22;10189;49.546;7.906;2023-06-19T04:39:52;20.10;76.70
20057;DHT22;10189;49.546;7.906;2023-06-19T04:42:18;20.10;76.50
20057;DHT22;10189;49.546;7.906;2023-06-19T04:44:47;19.90;77.10
20057;DHT22;10189;49.546;7.906;2023-06-19T04:47:14;19.80;78.10
20057;DHT22;10189;49.546;7.906;2023-06-19T04:49:42;19.80;77.80
20057;DHT22;10189;49.546;7.906;2023-06-19T04:52:08;19.80;77.90
20057;DHT22;10189;49.546;7.906;2023-06-19T04:54:34;19.80;78.30
20057;DHT22;10189;49.546;7.906;2023-06-19T04:57:00;19.70;78.50
20057;DHT22;10189;49.546;7.906;2023-06-19T04:59:27;19.80;78.50
20057;DHT22;10189;49.546;7.906;2023-06-19T05:01:53;19.80;78.90
20057;DHT22;10189;49.546;7.906;2023-06-19T05:04:20;19.80;78.40
20057;DHT22;10189;49.546;7.906;2023-06-19T05:06:51;19.90;78.90
20057;DHT22;10189;49.546;7.906;2023-06-19T05:09:17;20.00;78.30
20057;DHT22;10189;49.546;7.906;2023-06-19T05:11:43;20.00;78.20
20057;DHT22;10189;49.546;7.906;2023-06-19T05:14:09;20.20;77.90
20057;DHT22;10189;49.546;7.906;2023-06-19T05:16:35;20.20;77.70
20057;DHT22;10189;49.546;7.906;2023-06-19T05:19:01;20.30;77.80
20057;DHT22;10189;49.546;7.906;2023-06-19T05:21:27;20.30;76.90
20057;DHT22;10189;49.546;7.906;2023-06-19T05:23:53;20.40;76.70
20057;DHT22;10189;49.546;7.906;2023-06-19T05:26:19;20.40;76.70
20057;DHT22;10189;49.546;7.906;2023-06-19T05:28:46;20.50;76.90
20057;DHT22;10189;49.546;7.906;2023-06-19T05:31:12;20.60;76.60
20057;DHT22;10189;49.546;7.906;2023-06-19T05:33:38;20.70;76.40
20057;DHT22;10189;49.546;7.906;2023-06-19T05:36:04;20.90;76.60
20057;DHT22;10189;49.546;7.906;2023-06-19T05:38:30;20.90;75.30
20057;DHT22;10189;49.546;7.906;2023-06-19T05:40:57;21.00;76.30
20057;DHT22;10189;49.546;7.906;2023-06-19T05:43:23;21.00;76.30
20057;DHT22;10189;49.546;7.906;2023-06-19T05:45:50;21.00;75.80
20057;DHT22;10189;49.546;7.906;2023-06-19T05:48:16;21.10;75.50
20057;DHT22;10189;49.546;7.906;2023-06-19T05:50:42;21.10;75.50
20057;DHT22;10189;49.546;7.906;2023-06-19T05:53:08;21.10;75.50
20057;DHT22;10189;49.546;7.906;2023-06-19T05:55:34;21.10;75.90
20057;DHT22;10189;49.546;7.906;2023-06-19T05:58:00;21.10;75.40
20057;DHT22;10189;49.546;7.906;2023-06-19T06:00:26;21.20;76.70
20057;DHT22;10189;49.546;7.906;2023-06-19T06:02:53;21.40;75.70
20057;DHT22;10189;49.546;7.906;2023-06-19T06:05:19;21.50;74.80
20057;DHT22;10189;49.546;7.906;2023-06-19T06:07:46;21.60;75.60
20057;DHT22;10189;49.546;7.906;2023-06-19T06:10:12;21.80;74.40
20057;DHT22;10189;49.546;7.906;2023-06-19T06:12:39;21.90;73.10
20057;DHT22;10189;49.546;7.906;2023-06-19T06:15:05;22.10;73.50
20057;DHT22;10189;49.546;7.906;2023-06-19T06:17:31;22.10;73.60
20057;DHT22;10189;49.546;7.906;2023-06-19T06:19:57;22.10;73.10
20057;DHT22;10189;49.546;7.906;2023-06-19T06:22:23;22.20;71.90
20057;DHT22;10189;49.546;7.906;2023-06-19T06:24:49;22.30;72.00
20057;DHT22;10189;49.546;7.906;2023-06-19T06:27:15;22.10;72.00
20057;DHT22;10189;49.546;7.906;2023-06-19T06:29:41;22.00;72.70
20057;DHT22;10189;49.546;7.906;2023-06-19T06:32:08;21.90;73.30
20057;DHT22;10189;49.546;7.906;2023-06-19T06:34:34;22.00;73.30
20057;DHT22;10189;49.546;7.906;2023-06-19T06:37:01;22.00;72.30
20057;DHT22;10189;49.546;7.906;2023-06-19T06:39:27;21.90;73.00
20057;DHT22;10189;49.546;7.906;2023-06-19T06:41:54;22.00;73.30
20057;DHT22;10189;49.546;7.906;2023-06-19T06:44:20;21.90;73.00
20057;DHT22;10189;49.546;7.906;2023-06-19T06:46:46;21.90;74.50
20057;DHT22;10189;49.546;7.906;2023-06-19T06:49:11;22.00;74.50
20057;DHT22;10189;49.546;7.906;2023-06-19T06:51:38;22.20;72.20
20057;DHT22;10189;49.546;7.906;2023-06-19T06:54:03;22.10;72.40
20057;DHT22;10189;49.546;7.906;2023-06-19T06:56:30;22.20;72.90
20057;DHT22;10189;49.546;7.906;2023-06-19T06:58:55;22.20;73.10
20057;DHT22;10189;49.546;7.906;2023-06-19T07:01:21;22.30;72.50
20057;DHT22;10189;49.546;7.906;2023-06-19T07:03:47;22.40;71.60
20057;DHT22;10189;49.546;7.906;2023-06-19T07:06:13;22.20;71.80
20057;DHT22;10189;49.546;7.906;2023-06-19T07:08:39;22.40;71.70
20057;DHT22;10189;49.546;7.906;2023-06-19T07:11:09;22.40;71.60
20057;DHT22;10189;49.546;7.906;2023-06-19T07:13:34;22.60;71.80
20057;DHT22;10189;49.546;7.906;2023-06-19T07:16:00;22.60;70.70
20057;DHT22;10189;49.546;7.906;2023-06-19T07:18:27;22.40;71.70
20057;DHT22;10189;49.546;7.906;2023-06-19T07:20:53;22.30;72.00
20057;DHT22;10189;49.546;7.906;2023-06-19T07:23:19;22.10;73.30
20057;DHT22;10189;49.546;7.906;2023-06-19T07:25:48;22.30;72.30
20057;DHT22;10189;49.546;7.906;2023-06-19T07:28:15;22.60;72.90
20057;DHT22;10189;49.546;7.906;2023-06-19T07:30:41;22.80;71.60
20057;DHT22;10189;49.546;7.906;2023-06-19T07:33:07;23.00;69.60
20057;DHT22;10189;49.546;7.906;2023-06-19T07:35:32;22.90;69.70
20057;DHT22;10189;49.546;7.906;2023-06-19T07:37:58;22.80;69.80
20057;DHT22;10189;49.546;7.906;2023-06-19T07:40:24;22.60;70.30
20057;DHT22;10189;49.546;7.906;2023-06-19T07:42:50;22.80;70.40
20057;DHT22;10189;49.546;7.906;2023-06-19T07:45:16;23.10;70.10
20057;DHT22;10189;49.546;7.906;2023-06-19T07:47:41;23.30;69.40
20057;DHT22;10189;49.546;7.906;2023-06-19T07:50:07;23.60;69.50
20057;DHT22;10189;49.546;7.906;2023-06-19T07:52:34;23.90;68.80
20057;DHT22;10189;49.546;7.906;2023-06-19T07:54:59;24.30;67.10
20057;DHT22;10189;49.546;7.906;2023-06-19T07:57:26;24.00;66.30
20057;DHT22;10189;49.546;7.906;2023-06-19T07:59:54;24.10;67.30
20057;DHT22;10189;49.546;7.906;2023-06-19T08:02:20;24.10;66.10
20057;DHT22;10189;49.546;7.906;2023-06-19T08:04:47;24.30;65.20
20057;DHT22;10189;49.546;7.906;2023-06-19T08:07:13;24.30;66.70
20057;DHT22;10189;49.546;7.906;2023-06-19T08:09:39;24.30;65.00
20057;DHT22;10189;49.546;7.906;2023-06-19T08:12:05;24.40;65.80
20057;DHT22;10189;49.546;7.906;2023-06-19T08:14:31;24.30;65.80
20057;DHT22;10189;49.546;7.906;2023-06-19T08:16:57;24.70;64.70
20057;DHT22;10189;49.546;7.906;2023-06-19T08:19:22;24.80;63.70
20057;DHT22;10189;49.546;7.906;2023-06-19T08:21:48;25.00;62.90
20057;DHT22;10189;49.546;7.906;2023-06-19T08:24:14;25.20;62.60
20057;DHT22;10189;49.546;7.906;2023-06-19T08:26:40;25.10;62.20
20057;DHT22;10189;49.546;7.906;2023-06-19T08:29:06;25.00;63.60
20057;DHT22;10189;49.546;7.906;2023-06-19T08:31:32;25.40;62.90
20057;DHT22;10189;49.546;7.906;2023-06-19T08:33:59;25.30;61.40
20057;DHT22;10189;49.546;7.906;2023-06-19T08:36:25;25.10;62.00
20057;DHT22;10189;49.546;7.906;2023-06-19T08:38:51;24.90;62.80
20057;DHT22;10189;49.546;7.906;2023-06-19T08:41:19;24.70;62.80
20057;DHT22;10189;49.546;7.906;2023-06-19T08:43:46;24.60;64.10
20057;DHT22;10189;49.546;7.906;2023-06-19T08:46:14;24.70;64.10
20057;DHT22;10189;49.546;7.906;2023-06-19T08:48:43;24.60;64.10
20057;DHT22;10189;49.546;7.906;2023-06-19T08:51:10;24.40;62.60
20057;DHT22;10189;49.546;7.906;2023-06-19T08:53:48;24.20;63.40
20057;DHT22;10189;49.546;7.906;2023-06-19T08:56:18;24.00;65.60
20057;DHT22;10189;49.546;7.906;2023-06-19T08:58:44;24.10;63.70
20057;DHT22;10189;49.546;7.906;2023-06-19T09:01:10;24.30;63.80
20057;DHT22;10189;49.546;7.906;2023-06-19T09:03:36;24.50;63.40
20057;DHT22;10189;49.546;7.906;2023-06-19T09:06:08;24.80;64.70
20057;DHT22;10189;49.546;7.906;2023-06-19T09:08:34;24.80;62.10
20057;DHT22;10189;49.546;7.906;2023-06-19T09:11:04;25.10;63.00
20057;DHT22;10189;49.546;7.906;2023-06-19T09:13:31;25.00;60.20
20057;DHT22;10189;49.546;7.906;2023-06-19T09:16:01;25.10;61.60
20057;DHT22;10189;49.546;7.906;2023-06-19T09:18:30;25.40;62.90
20057;DHT22;10189;49.546;7.906;2023-06-19T09:20:57;25.70;60.30
20057;DHT22;10189;49.546;7.906;2023-06-19T09:23:24;25.60;60.40
20057;DHT22;10189;49.546;7.906;2023-06-19T09:25:54;25.90;59.30
20057;DHT22;10189;49.546;7.906;2023-06-19T09:28:25;26.10;58.40
20057;DHT22;10189;49.546;7.906;2023-06-19T09:33:19;25.00;60.40
20057;DHT22;10189;49.546;7.906;2023-06-19T09:35:45;25.10;62.90
20057;DHT22;10189;49.546;7.906;2023-06-19T09:38:12;25.30;59.80
20057;DHT22;10189;49.546;7.906;2023-06-19T09:40:40;25.40;60.00
20057;DHT22;10189;49.546;7.906;2023-06-19T09:43:07;25.80;58.30
20057;DHT22;10189;49.546;7.906;2023-06-19T09:45:34;26.40;57.40
20057;DHT22;10189;49.546;7.906;2023-06-19T09:48:00;26.60;55.50
20057;DHT22;10189;49.546;7.906;2023-06-19T09:50:45;26.60;55.20
20057;DHT22;10189;49.546;7.906;2023-06-19T09:53:18;26.60;55.60
20057;DHT22;10189;49.546;7.906;2023-06-19T09:55:48;26.60;55.30
20057;DHT22;10189;49.546;7.906;2023-06-19T09:58:18;26.70;55.80
20057;DHT22;10189;49.546;7.906;2023-06-19T10:00:46;26.60;55.40
20057;DHT22;10189;49.546;7.906;2023-06-19T10:03:15;26.70;54.60
20057;DHT22;10189;49.546;7.906;2023-06-19T10:05:42;26.90;56.00
20057;DHT22;10189;49.546;7.906;2023-06-19T10:08:08;27.30;53.40
20057;DHT22;10189;49.546;7.906;2023-06-19T10:10:35;27.30;52.30
20057;DHT22;10189;49.546;7.906;2023-06-19T10:13:15;27.20;51.20
20057;DHT22;10189;49.546;7.906;2023-06-19T10:15:43;27.20;53.60
20057;DHT22;10189;49.546;7.906;2023-06-19T10:18:17;27.10;50.80
20057;DHT22;10189;49.546;7.906;2023-06-19T10:20:45;26.80;52.40
20057;DHT22;10189;49.546;7.906;2023-06-19T10:23:19;26.80;52.10
20057;DHT22;10189;49.546;7.906;2023-06-19T10:25:59;26.70;53.20
20057;DHT22;10189;49.546;7.906;2023-06-19T10:28:33;26.80;53.10
20057;DHT22;10189;49.546;7.906;2023-06-19T10:31:06;26.80;52.70
20057;DHT22;10189;49.546;7.906;2023-06-19T10:33:37;26.40;52.70
20057;DHT22;10189;49.546;7.906;2023-06-19T10:36:23;26.20;54.70
20057;DHT22;10189;49.546;7.906;2023-06-19T10:38:51;26.50;56.40
20057;DHT22;10189;49.546;7.906;2023-06-19T10:41:22;26.80;53.80
20057;DHT22;10189;49.546;7.906;2023-06-19T10:44:02;27.10;54.10
20057;DHT22;10189;49.546;7.906;2023-06-19T10:46:32;27.20;52.20
20057;DHT22;10189;49.546;7.906;2023-06-19T10:49:00;27.60;50.90
20057;DHT22;10189;49.546;7.906;2023-06-19T10:51:36;27.50;49.50
20057;DHT22;10189;49.546;7.906;2023-06-19T10:54:04;27.10;48.90
20057;DHT22;10189;49.546;7.906;2023-06-19T10:56:31;26.60;52.00
20057;DHT22;10189;49.546;7.906;2023-06-19T11:01:48;27.10;51.90
20057;DHT22;10189;49.546;7.906;2023-06-19T11:04:17;27.50;50.80
20057;DHT22;10189;49.546;7.906;2023-06-19T11:06:44;27.60;50.10
20057;DHT22;10189;49.546;7.906;2023-06-19T11:09:13;27.60;49.50
20057;DHT22;10189;49.546;7.906;2023-06-19T11:11:41;27.60;50.20
20057;DHT22;10189;49.546;7.906;2023-06-19T11:14:09;27.40;51.20
20057;DHT22;10189;49.546;7.906;2023-06-19T11:16:39;27.50;50.40
20057;DHT22;10189;49.546;7.906;2023-06-19T11:19:18;27.70;50.40
20057;DHT22;10189;49.546;7.906;2023-06-19T11:21:54;27.80;49.60
20057;DHT22;10189;49.546;7.906;2023-06-19T11:24:22;27.90;48.40
20057;DHT22;10189;49.546;7.906;2023-06-19T11:26:50;27.90;51.00
20057;DHT22;10189;49.546;7.906;2023-06-19T11:29:30;28.10;49.60
20057;DHT22;10189;49.546;7.906;2023-06-19T11:32:13;28.00;49.20
20057;DHT22;10189;49.546;7.906;2023-06-19T11:34:41;27.90;49.20
20057;DHT22;10189;49.546;7.906;2023-06-19T11:37:17;28.20;49.00
20057;DHT22;10189;49.546;7.906;2023-06-19T11:39:44;28.00;49.20
20057;DHT22;10189;49.546;7.906;2023-06-19T11:42:11;27.80;48.90
20057;DHT22;10189;49.546;7.906;2023-06-19T11:44:56;27.80;49.70
20057;DHT22;10189;49.546;7.906;2023-06-19T11:47:33;27.90;48.80
20057;DHT22;10189;49.546;7.906;2023-06-19T11:49:59;27.70;49.60
20057;DHT22;10189;49.546;7.906;2023-06-19T11:52:28;27.30;50.50
20057;DHT22;10189;49.546;7.906;2023-06-19T11:54:56;27.10;50.70
20057;DHT22;10189;49.546;7.906;2023-06-19T11:57:22;27.20;51.50
20057;DHT22;10189;49.546;7.906;2023-06-19T11:59:48;27.30;51.50
20057;DHT22;10189;49.546;7.906;2023-06-19T12:02:14;27.60;51.30
20057;DHT22;10189;49.546;7.906;2023-06-19T12:04:39;27.80;52.40
20057;DHT22;10189;49.546;7.906;2023-06-19T12:07:05;27.90;51.00
20057;DHT22;10189;49.546;7.906;2023-06-19T12:09:31;27.90;51.30
20057;DHT22;10189;49.546;7.906;2023-06-19T12:11:58;28.10;50.90
20057;DHT22;10189;49.546;7.906;2023-06-19T12:14:25;28.20;49.00
20057;DHT22;10189;49.546;7.906;2023-06-19T12:16:51;28.10;49.00
20057;DHT22;10189;49.546;7.906;2023-06-19T12:19:17;28.40;48.40
20057;DHT22;10189;49.546;7.906;2023-06-19T12:21:43;28.70;49.00
20057;DHT22;10189;49.546;7.906;2023-06-19T12:24:09;28.80;48.80
20057;DHT22;10189;49.546;7.906;2023-06-19T12:26:35;28.90;48.20
20057;DHT22;10189;49.546;7.906;2023-06-19T12:29:03;28.70;49.10
20057;DHT22;10189;49.546;7.906;2023-06-19T12:31:30;28.80;48.40
20057;DHT22;10189;49.546;7.906;2023-06-19T12:33:56;29.10;48.40
20057;DHT22;10189;49.546;7.906;2023-06-19T12:36:22;29.40;48.40
20057;DHT22;10189;49.546;7.906;2023-06-19T12:38:49;29.70;47.80
20057;DHT22;10189;49.546;7.906;2023-06-19T12:41:15;30.00;47.20
20057;DHT22;10189;49.546;7.906;2023-06-19T12:43:41;30.40;47.60
20057;DHT22;10189;49.546;7.906;2023-06-19T12:46:07;30.80;44.40
20057;DHT22;10189;49.546;7.906;2023-06-19T12:48:33;30.60;44.40
20057;DHT22;10189;49.546;7.906;2023-06-19T12:50:59;30.50;43.40
20057;DHT22;10189;49.546;7.906;2023-06-19T12:53:25;30.00;44.20
20057;DHT22;10189;49.546;7.906;2023-06-19T12:55:57;29.70;45.40
20057;DHT22;10189;49.546;7.906;2023-06-19T12:58:23;29.90;45.60
20057;DHT22;10189;49.546;7.906;2023-06-19T13:00:49;30.00;44.90
20057;DHT22;10189;49.546;7.906;2023-06-19T13:03:15;30.20;46.00
20057;DHT22;10189;49.546;7.906;2023-06-19T13:05:40;30.40;43.70
20057;DHT22;10189;49.546;7.906;2023-06-19T13:08:07;30.00;45.50
20057;DHT22;10189;49.546;7.906;2023-06-19T13:10:33;29.50;46.10
20057;DHT22;10189;49.546;7.906;2023-06-19T13:12:58;29.40;47.40
20057;DHT22;10189;49.546;7.906;2023-06-19T13:15:24;29.30;46.80
20057;DHT22;10189;49.546;7.906;2023-06-19T13:17:51;29.30;47.30
20057;DHT22;10189;49.546;7.906;2023-06-19T13:20:17;29.10;48.70
20057;DHT22;10189;49.546;7.906;2023-06-19T13:22:43;29.30;47.00
20057;DHT22;10189;49.546;7.906;2023-06-19T13:25:09;29.40;46.70
20057;DHT22;10189;49.546;7.906;2023-06-19T13:27:35;29.20;46.30
20057;DHT22;10189;49.546;7.906;2023-06-19T13:30:02;28.90;47.40
20057;DHT22;10189;49.546;7.906;2023-06-19T13:32:28;28.90;47.10
20057;DHT22;10189;49.546;7.906;2023-06-19T13:34:54;29.00;46.80
20057;DHT22;10189;49.546;7.906;2023-06-19T13:37:20;29.50;45.70
20057;DHT22;10189;49.546;7.906;2023-06-19T13:39:46;29.50;46.40
20057;DHT22;10189;49.546;7.906;2023-06-19T13:42:12;29.70;46.50
20057;DHT22;10189;49.546;7.906;2023-06-19T13:44:38;29.70;46.20
20057;DHT22;10189;49.546;7.906;2023-06-19T13:47:05;29.40;46.10
20057;DHT22;10189;49.546;7.906;2023-06-19T13:49:31;29.10;47.40
20057;DHT22;10189;49.546;7.906;2023-06-19T13:51:56;29.00;47.40
20057;DHT22;10189;49.546;7.906;2023-06-19T13:54:22;29.00;47.50
20057;DHT22;10189;49.546;7.906;2023-06-19T13:56:48;29.00;47.80
20057;DHT22;10189;49.546;7.906;2023-06-19T13:59:16;29.00;49.30
20057;DHT22;10189;49.546;7.906;2023-06-19T14:01:42;29.00;48.90
20057;DHT22;10189;49.546;7.906;2023-06-19T14:04:09;29.00;46.90
20057;DHT22;10189;49.546;7.906;2023-06-19T14:06:35;28.60;48.30
20057;DHT22;10189;49.546;7.906;2023-06-19T14:09:03;28.50;48.90
20057;DHT22;10189;49.546;7.906;2023-06-19T14:11:29;28.40;49.20
20057;DHT22;10189;49.546;7.906;2023-06-19T14:13:55;28.40;50.20
20057;DHT22;10189;49.546;7.906;2023-06-19T14:16:21;28.70;50.10
20057;DHT22;10189;49.546;7.906;2023-06-19T14:18:47;29.00;48.60
20057;DHT22;10189;49.546;7.906;2023-06-19T14:21:13;29.20;49.00
20057;DHT22;10189;49.546;7.906;2023-06-19T14:23:39;29.30;47.40
20057;DHT22;10189;49.546;7.906;2023-06-19T14:26:10;29.10;49.00
20057;DHT22;10189;49.546;7.906;2023-06-19T14:28:37;28.80;48.90
20057;DHT22;10189;49.546;7.906;2023-06-19T14:31:04;28.70;49.20
20057;DHT22;10189;49.546;7.906;2023-06-19T14:33:30;28.60;49.60
20057;DHT22;10189;49.546;7.906;2023-06-19T14:35:59;28.50;50.80
20057;DHT22;10189;49.546;7.906;2023-06-19T14:38:25;28.50;51.30
20057;DHT22;10189;49.546;7.906;2023-06-19T14:40:53;28.60;50.20
20057;DHT22;10189;49.546;7.906;2023-06-19T14:43:19;28.70;51.00
20057;DHT22;10189;49.546;7.906;2023-06-19T14:45:45;28.80;50.70
20057;DHT22;10189;49.546;7.906;2023-06-19T14:48:11;29.10;51.10
20057;DHT22;10189;49.546;7.906;2023-06-19T14:50:37;29.20;48.60
20057;DHT22;10189;49.546;7.906;2023-06-19T14:53:03;29.30;49.80
20057;DHT22;10189;49.546;7.906;2023-06-19T14:55:28;29.20;48.80
20057;DHT22;10189;49.546;7.906;2023-06-19T14:57:54;29.10;48.50
20057;DHT22;10189;49.546;7.906;2023-06-19T15:00:20;28.90;49.00
20057;DHT22;10189;49.546;7.906;2023-06-19T15:02:46;29.00;49.40
20057;DHT22;10189;49.546;7.906;2023-06-19T15:05:12;28.70;50.60
20057;DHT22;10189;49.546;7.906;2023-06-19T15:07:38;28.50;50.90
20057;DHT22;10189;49.546;7.906;2023-06-19T15:10:04;28.30;51.30
20057;DHT22;10189;49.546;7.906;2023-06-19T15:12:30;28.30;52.30
20057;DHT22;10189;49.546;7.906;2023-06-19T15:14:57;28.20;51.80
20057;DHT22;10189;49.546;7.906;2023-06-19T15:17:23;28.20;52.70
20057;DHT22;10189;49.546;7.906;2023-06-19T15:19:49;27.90;52.00
20057;DHT22;10189;49.546;7.906;2023-06-19T15:22:15;27.80;53.20
20057;DHT22;10189;49.546;7.906;2023-06-19T15:24:41;27.90;53.80
20057;DHT22;10189;49.546;7.906;2023-06-19T15:27:07;27.90;53.70
20057;DHT22;10189;49.546;7.906;2023-06-19T15:29:33;27.90;52.50
20057;DHT22;10189;49.546;7.906;2023-06-19T15:31:58;27.70;53.80
20057;DHT22;10189;49.546;7.906;2023-06-19T15:34:24;27.70;53.10
20057;DHT22;10189;49.546;7.906;2023-06-19T15:36:50;27.60;53.80